sensor_id;sensor_type;location;lat;lon;timestamp;temperature;humidity
55173;DHT22;41061;52.822;6.860;2023-06-10T00:00:40;17.70;99.90
55173;DHT22;41061;52.822;6.860;2023-06-10T00:03:10;17.60;99.90
55173;DHT22;41061;52.822;6.860;2023-06-10T00:05:36;17.70;99.90
55173;DHT22;41061;52.822;6.860;2023-06-10T00:08:05;17.70;99.90
55173;DHT22;41061;52.822;6.860;2023-06-10T00:10:34;17.70;99.90
55173;DHT22;41061;52.822;6.860;2023-06-10T00:13:02;17.60;99.90
55173;DHT22;41061;52.822;6.860;2023-06-10T00:15:29;17.70;99.90
55173;DHT22;41061;52.822;6.860;2023-06-10T00:17:54;17.70;99.90
55173;DHT22;41061;52.822;6.860;2023-06-10T00:20:21;17.70;99.90
55173;DHT22;41061;52.822;6.860;2023-06-10T00:22:49;17.70;99.90
55173;DHT22;41061;52.822;6.860;2023-06-10T00:25:15;17.70;99.90
55173;DHT22;41061;52.822;6.860;2023-06-10T00:27:41;17.60;99.90
55173;DHT22;41061;52.822;6.860;2023-06-10T00:30:07;17.70;99.90
55173;DHT22;41061;52.822;6.860;2023-06-10T00:32:34;17.60;99.90
55173;DHT22;41061;52.822;6.860;2023-06-10T00:34:59;17.50;99.90
55173;DHT22;41061;52.822;6.860;2023-06-10T00:37:25;17.40;99.90
55173;DHT22;41061;52.822;6.860;2023-06-10T00:39:51;17.30;99.90
55173;DHT22;41061;52.822;6.860;2023-06-10T00:42:17;17.20;99.90
55173;DHT22;41061;52.822;6.860;2023-06-10T00:44:42;17.10;99.90
55173;DHT22;41061;52.822;6.860;2023-06-10T00:47:08;16.90;99.90
55173;DHT22;41061;52.822;6.860;2023-06-10T00:49:34;16.90;99.90
55173;DHT22;41061;52.822;6.860;2023-06-10T00:52:01;16.80;99.90
55173;DHT22;41061;52.822;6.860;2023-06-10T00:54:28;16.70;99.90
55173;DHT22;41061;52.822;6.860;2023-06-10T00:56:55;16.70;99.90
55173;DHT22;41061;52.822;6.860;2023-06-10T00:59:21;16.60;99.90
55173;DHT22;41061;52.822;6.860;2023-06-10T01:01:47;16.60;99.90
55173;DHT22;41061;52.822;6.860;2023-06-10T01:04:13;16.50;99.90
55173;DHT22;41061;52.822;6.860;2023-06-10T01:11:58;16.30;99.90
55173;DHT22;41061;52.822;6.860;2023-06-10T01:14:29;16.30;99.90
55173;DHT22;41061;52.822;6.860;2023-06-10T01:16:55;16.20;99.90
55173;DHT22;41061;52.822;6.860;2023-06-10T01:19:22;16.20;99.90
55173;DHT22;41061;52.822;6.860;2023-06-10T01:21:50;16.20;99.90
55173;DHT22;41061;52.822;6.860;2023-06-10T01:24:17;16.20;99.90
55173;DHT22;41061;52.822;6.860;2023-06-10T01:26:44;16.20;99.90
55173;DHT22;41061;52.822;6.860;2023-06-10T01:29:28;16.10;99.90
55173;DHT22;41061;52.822;6.860;2023-06-10T01:32:03;16.10;99.90
55173;DHT22;41061;52.822;6.860;2023-06-10T01:34:31;16.00;99.90
55173;DHT22;41061;52.822;6.860;2023-06-10T01:36:58;16.00;99.90
55173;DHT22;41061;52.822;6.860;2023-06-10T01:39:24;16.00;99.90
55173;DHT22;41061;52.822;6.860;2023-06-10T01:41:52;16.00;99.90
55173;DHT22;41061;52.822;6.860;2023-06-10T01:44:19;16.00;99.90
55173;DHT22;41061;52.822;6.860;2023-06-10T01:46:45;15.90;99.90
55173;DHT22;41061;52.822;6.860;2023-06-10T01:49:12;15.90;99.90
55173;DHT22;41061;52.822;6.860;2023-06-10T01:51:37;15.90;99.90
55173;DHT22;41061;52.822;6.860;2023-06-10T01:54:03;15.90;99.90
55173;DHT22;41061;52.822;6.860;2023-06-10T01:56:29;15.90;99.90
55173;DHT22;41061;52.822;6.860;2023-06-10T01:58:54;15.90;99.90
55173;DHT22;41061;52.822;6.860;2023-06-10T02:01:24;15.90;99.90
55173;DHT22;41061;52.822;6.860;2023-06-10T02:03:50;15.90;99.90
55173;DHT22;41061;52.822;6.860;2023-06-10T02:06:16;15.80;99.90
55173;DHT22;41061;52.822;6.860;2023-06-10T02:08:42;15.80;99.90
55173;DHT22;41061;52.822;6.860;2023-06-10T02:11:08;15.80;99.90
55173;DHT22;41061;52.822;6.860;2023-06-10T02:13:34;15.70;99.90
55173;DHT22;41061;52.822;6.860;2023-06-10T02:16:00;15.60;99.90
55173;DHT22;41061;52.822;6.860;2023-06-10T02:18:27;15.50;99.90
55173;DHT22;41061;52.822;6.860;2023-06-10T02:20:53;15.50;99.90
55173;DHT22;41061;52.822;6.860;2023-06-10T02:23:19;15.50;99.90
55173;DHT22;41061;52.822;6.860;2023-06-10T02:25:45;15.50;99.90
55173;DHT22;41061;52.822;6.860;2023-06-10T02:28:13;15.40;99.90
55173;DHT22;41061;52.822;6.860;2023-06-10T02:30:40;15.40;99.90
55173;DHT22;41061;52.822;6.860;2023-06-10T02:33:07;15.20;99.90
55173;DHT22;41061;52.822;6.860;2023-06-10T02:35:38;15.20;99.90
55173;DHT22;41061;52.822;6.860;2023-06-10T02:38:04;15.20;99.90
55173;DHT22;41061;52.822;6.860;2023-06-10T02:40:30;15.10;99.90
55173;DHT22;41061;52.822;6.860;2023-06-10T02:42:56;15.00;99.90
55173;DHT22;41061;52.822;6.860;2023-06-10T02:45:21;15.00;99.90
55173;DHT22;41061;52.822;6.860;2023-06-10T02:47:47;15.00;99.90
55173;DHT22;41061;52.822;6.860;2023-06-10T02:50:13;15.00;99.90
55173;DHT22;41061;52.822;6.860;2023-06-10T02:52:38;15.00;99.90
55173;DHT22;41061;52.822;6.860;2023-06-10T02:55:04;14.90;99.90
55173;DHT22;41061;52.822;6.860;2023-06-10T02:57:30;14.80;99.90
55173;DHT22;41061;52.822;6.860;2023-06-10T02:59:56;14.80;99.90
55173;DHT22;41061;52.822;6.860;2023-06-10T03:02:24;14.80;99.90
55173;DHT22;41061;52.822;6.860;2023-06-10T03:04:55;14.80;99.90
55173;DHT22;41061;52.822;6.860;2023-06-10T03:07:21;14.70;99.90
55173;DHT22;41061;52.822;6.860;2023-06-10T03:09:46;14.70;99.90
55173;DHT22;41061;52.822;6.860;2023-06-10T03:12:12;14.70;99.90
55173;DHT22;41061;52.822;6.860;2023-06-10T03:14:38;14.60;99.90
55173;DHT22;41061;52.822;6.860;2023-06-10T03:17:05;14.60;99.90
55173;DHT22;41061;52.822;6.860;2023-06-10T03:19:30;14.50;99.90
55173;DHT22;41061;52.822;6.860;2023-06-10T03:22:07;14.50;99.90
55173;DHT22;41061;52.822;6.860;2023-06-10T03:24:33;14.40;99.90
55173;DHT22;41061;52.822;6.860;2023-06-10T03:26:59;14.40;99.90
55173;DHT22;41061;52.822;6.860;2023-06-10T03:29:25;14.30;99.90
55173;DHT22;41061;52.822;6.860;2023-06-10T03:31:51;14.30;99.90
55173;DHT22;41061;52.822;6.860;2023-06-10T03:34:17;14.20;99.90
55173;DHT22;41061;52.822;6.860;2023-06-10T03:36:42;14.20;99.90
55173;DHT22;41061;52.822;6.860;2023-06-10T03:39:08;14.20;99.90
55173;DHT22;41061;52.822;6.860;2023-06-10T03:41:35;14.30;99.90
55173;DHT22;41061;52.822;6.860;2023-06-10T03:44:00;14.40;99.90
55173;DHT22;41061;52.822;6.860;2023-06-10T03:46:26;14.40;99.90
55173;DHT22;41061;52.822;6.860;2023-06-10T03:48:52;14.40;99.90
55173;DHT22;41061;52.822;6.860;2023-06-10T03:51:18;14.30;99.90
55173;DHT22;41061;52.822;6.860;2023-06-10T03:53:43;14.40;99.90
55173;DHT22;41061;52.822;6.860;2023-06-10T03:56:09;14.30;99.90
55173;DHT22;41061;52.822;6.860;2023-06-10T03:58:35;14.30;99.90
55173;DHT22;41061;52.822;6.860;2023-06-10T04:01:00;14.20;99.90
55173;DHT22;41061;52.822;6.860;2023-06-10T04:03:26;14.30;99.90
55173;DHT22;41061;52.822;6.860;2023-06-10T04:05:52;14.30;99.90
55173;DHT22;41061;52.822;6.860;2023-06-10T04:08:18;14.40;99.90
55173;DHT22;41061;52.822;6.860;2023-06-10T04:10:44;14.30;99.90
55173;DHT22;41061;52.822;6.860;2023-06-10T04:13:10;14.40;99.90
55173;DHT22;41061;52.822;6.860;2023-06-10T04:15:36;14.40;99.90
55173;DHT22;41061;52.822;6.860;2023-06-10T04:18:02;14.40;99.90
55173;DHT22;41061;52.822;6.860;2023-06-10T04:20:28;14.40;99.90
55173;DHT22;41061;52.822;6.860;2023-06-10T04:22:54;14.40;99.90
55173;DHT22;41061;52.822;6.860;2023-06-10T04:25:20;14.40;99.90
55173;DHT22;41061;52.822;6.860;2023-06-10T04:27:45;14.50;99.90
55173;DHT22;41061;52.822;6.860;2023-06-10T04:30:12;14.50;99.90
55173;DHT22;41061;52.822;6.860;2023-06-10T04:32:38;14.50;99.90
55173;DHT22;41061;52.822;6.860;2023-06-10T04:35:04;14.60;99.90
55173;DHT22;41061;52.822;6.860;2023-06-10T04:37:30;14.60;99.90
55173;DHT22;41061;52.822;6.860;2023-06-10T04:39:56;14.60;99.90
55173;DHT22;41061;52.822;6.860;2023-06-10T04:42:22;14.70;99.90
55173;DHT22;41061;52.822;6.860;2023-06-10T04:44:48;14.70;99.90
55173;DHT22;41061;52.822;6.860;2023-06-10T04:47:13;14.80;99.90
55173;DHT22;41061;52.822;6.860;2023-06-10T04:49:39;14.90;99.90
55173;DHT22;41061;52.822;6.860;2023-06-10T04:52:05;14.90;99.90
55173;DHT22;41061;52.822;6.860;2023-06-10T04:54:31;15.00;99.90
55173;DHT22;41061;52.822;6.860;2023-06-10T04:56:58;15.10;99.90
55173;DHT22;41061;52.822;6.860;2023-06-10T04:59:23;15.20;99.90
55173;DHT22;41061;52.822;6.860;2023-06-10T05:01:49;15.20;99.90
55173;DHT22;41061;52.822;6.860;2023-06-10T05:04:15;15.30;99.90
55173;DHT22;41061;52.822;6.860;2023-06-10T05:06:40;15.40;99.90
55173;DHT22;41061;52.822;6.860;2023-06-10T05:09:06;15.40;99.90
55173;DHT22;41061;52.822;6.860;2023-06-10T05:11:32;15.50;99.90
55173;DHT22;41061;52.822;6.860;2023-06-10T05:13:58;15.60;99.90
55173;DHT22;41061;52.822;6.860;2023-06-10T05:16:23;15.70;99.90
55173;DHT22;41061;52.822;6.860;2023-06-10T05:18:49;15.80;99.90
55173;DHT22;41061;52.822;6.860;2023-06-10T05:21:16;15.90;99.90
55173;DHT22;41061;52.822;6.860;2023-06-10T05:23:42;16.00;99.90
55173;DHT22;41061;52.822;6.860;2023-06-10T05:26:08;16.10;99.90
55173;DHT22;41061;52.822;6.860;2023-06-10T05:28:33;16.20;99.90
55173;DHT22;41061;52.822;6.860;2023-06-10T05:30:59;16.30;99.90
55173;DHT22;41061;52.822;6.860;2023-06-10T05:33:25;16.40;99.90
55173;DHT22;41061;52.822;6.860;2023-06-10T05:35:50;16.40;99.90
55173;DHT22;41061;52.822;6.860;2023-06-10T05:38:16;16.50;99.90
55173;DHT22;41061;52.822;6.860;2023-06-10T05:40:42;16.60;99.90
55173;DHT22;41061;52.822;6.860;2023-06-10T05:43:07;16.70;99.90
55173;DHT22;41061;52.822;6.860;2023-06-10T05:45:35;16.70;99.90
55173;DHT22;41061;52.822;6.860;2023-06-10T05:48:00;16.70;99.90
55173;DHT22;41061;52.822;6.860;2023-06-10T05:50:26;16.80;99.90
55173;DHT22;41061;52.822;6.860;2023-06-10T05:52:52;16.90;99.90
55173;DHT22;41061;52.822;6.860;2023-06-10T05:55:19;17.00;99.90
55173;DHT22;41061;52.822;6.860;2023-06-10T05:57:44;17.00;99.90
55173;DHT22;41061;52.822;6.860;2023-06-10T06:00:11;17.10;99.90
55173;DHT22;41061;52.822;6.860;2023-06-10T06:02:36;17.10;99.90
55173;DHT22;41061;52.822;6.860;2023-06-10T06:05:02;17.20;99.90
55173;DHT22;41061;52.822;6.860;2023-06-10T06:07:28;17.20;99.90
55173;DHT22;41061;52.822;6.860;2023-06-10T06:09:54;17.30;99.90
55173;DHT22;41061;52.822;6.860;2023-06-10T06:12:19;17.40;99.90
55173;DHT22;41061;52.822;6.860;2023-06-10T06:14:45;17.50;99.90
55173;DHT22;41061;52.822;6.860;2023-06-10T06:17:11;17.50;99.90
55173;DHT22;41061;52.822;6.860;2023-06-10T06:19:37;17.60;99.90
55173;DHT22;41061;52.822;6.860;2023-06-10T06:22:02;17.60;99.90
55173;DHT22;41061;52.822;6.860;2023-06-10T06:24:28;17.60;99.90
55173;DHT22;41061;52.822;6.860;2023-06-10T06:26:54;17.70;99.90
55173;DHT22;41061;52.822;6.860;2023-06-10T06:29:19;17.70;99.90
55173;DHT22;41061;52.822;6.860;2023-06-10T06:31:45;17.90;99.90
55173;DHT22;41061;52.822;6.860;2023-06-10T06:34:11;17.80;99.90
55173;DHT22;41061;52.822;6.860;2023-06-10T06:36:37;17.90;99.90
55173;DHT22;41061;52.822;6.860;2023-06-10T06:39:03;18.00;99.90
55173;DHT22;41061;52.822;6.860;2023-06-10T06:41:28;18.10;99.90
55173;DHT22;41061;52.822;6.860;2023-06-10T06:43:54;18.20;99.90
55173;DHT22;41061;52.822;6.860;2023-06-10T06:46:20;18.20;99.90
55173;DHT22;41061;52.822;6.860;2023-06-10T06:48:47;18.30;99.90
55173;DHT22;41061;52.822;6.860;2023-06-10T06:51:12;18.30;99.90
55173;DHT22;41061;52.822;6.860;2023-06-10T06:53:39;18.30;99.90
55173;DHT22;41061;52.822;6.860;2023-06-10T06:56:11;18.40;99.90
55173;DHT22;41061;52.822;6.860;2023-06-10T06:58:36;18.50;99.90
55173;DHT22;41061;52.822;6.860;2023-06-10T07:01:02;18.60;99.90
55173;DHT22;41061;52.822;6.860;2023-06-10T07:03:28;18.60;99.90
55173;DHT22;41061;52.822;6.860;2023-06-10T07:05:54;18.80;99.90
55173;DHT22;41061;52.822;6.860;2023-06-10T07:08:20;18.70;99.90
55173;DHT22;41061;52.822;6.860;2023-06-10T07:10:45;18.70;99.90
55173;DHT22;41061;52.822;6.860;2023-06-10T07:13:11;18.70;99.90
55173;DHT22;41061;52.822;6.860;2023-06-10T07:15:38;18.80;99.90
55173;DHT22;41061;52.822;6.860;2023-06-10T07:18:04;18.90;99.90
55173;DHT22;41061;52.822;6.860;2023-06-10T07:20:30;19.00;99.90
55173;DHT22;41061;52.822;6.860;2023-06-10T07:22:55;19.10;99.90
55173;DHT22;41061;52.822;6.860;2023-06-10T07:25:21;19.20;99.90
55173;DHT22;41061;52.822;6.860;2023-06-10T07:27:47;19.30;99.90
55173;DHT22;41061;52.822;6.860;2023-06-10T07:30:13;19.20;99.90
55173;DHT22;41061;52.822;6.860;2023-06-10T07:32:38;19.20;99.90
55173;DHT22;41061;52.822;6.860;2023-06-10T07:35:07;19.30;99.90
55173;DHT22;41061;52.822;6.860;2023-06-10T07:37:34;19.40;99.90
55173;DHT22;41061;52.822;6.860;2023-06-10T07:39:59;19.60;99.90
55173;DHT22;41061;52.822;6.860;2023-06-10T07:42:25;19.70;99.90
55173;DHT22;41061;52.822;6.860;2023-06-10T07:44:51;19.80;99.90
55173;DHT22;41061;52.822;6.860;2023-06-10T07:47:18;19.90;99.90
55173;DHT22;41061;52.822;6.860;2023-06-10T07:49:43;20.00;99.90
55173;DHT22;41061;52.822;6.860;2023-06-10T07:52:09;20.10;99.90
55173;DHT22;41061;52.822;6.860;2023-06-10T07:54:35;20.10;99.90
55173;DHT22;41061;52.822;6.860;2023-06-10T07:57:01;20.30;99.90
55173;DHT22;41061;52.822;6.860;2023-06-10T07:59:27;20.30;99.90
55173;DHT22;41061;52.822;6.860;2023-06-10T08:01:53;20.40;99.90
55173;DHT22;41061;52.822;6.860;2023-06-10T08:04:19;20.50;99.90
55173;DHT22;41061;52.822;6.860;2023-06-10T08:06:44;20.50;99.90
55173;DHT22;41061;52.822;6.860;2023-06-10T08:09:10;20.50;99.90
55173;DHT22;41061;52.822;6.860;2023-06-10T08:11:36;20.60;99.90
55173;DHT22;41061;52.822;6.860;2023-06-10T08:14:02;20.60;99.90
55173;DHT22;41061;52.822;6.860;2023-06-10T08:16:27;20.70;99.90
55173;DHT22;41061;52.822;6.860;2023-06-10T08:18:53;20.80;99.90
55173;DHT22;41061;52.822;6.860;2023-06-10T08:21:19;20.80;99.90
55173;DHT22;41061;52.822;6.860;2023-06-10T08:23:45;20.90;99.90
55173;DHT22;41061;52.822;6.860;2023-06-10T08:26:10;21.00;99.90
55173;DHT22;41061;52.822;6.860;2023-06-10T08:28:37;21.10;99.90
55173;DHT22;41061;52.822;6.860;2023-06-10T08:31:02;21.30;99.90
55173;DHT22;41061;52.822;6.860;2023-06-10T08:33:28;21.40;99.90
55173;DHT22;41061;52.822;6.860;2023-06-10T08:35:54;21.50;99.90
55173;DHT22;41061;52.822;6.860;2023-06-10T08:38:19;21.70;99.90
55173;DHT22;41061;52.822;6.860;2023-06-10T08:40:45;21.90;99.90
55173;DHT22;41061;52.822;6.860;2023-06-10T08:43:21;22.10;99.90
55173;DHT22;41061;52.822;6.860;2023-06-10T08:45:49;22.20;99.90
55173;DHT22;41061;52.822;6.860;2023-06-10T08:48:16;22.20;99.90
55173;DHT22;41061;52.822;6.860;2023-06-10T08:50:42;22.20;99.90
55173;DHT22;41061;52.822;6.860;2023-06-10T08:53:08;22.20;99.90
55173;DHT22;41061;52.822;6.860;2023-06-10T08:55:38;22.30;99.90
55173;DHT22;41061;52.822;6.860;2023-06-10T08:58:04;22.40;99.90
55173;DHT22;41061;52.822;6.860;2023-06-10T09:00:30;22.60;99.60
55173;DHT22;41061;52.822;6.860;2023-06-10T09:02:57;22.70;99.10
55173;DHT22;41061;52.822;6.860;2023-06-10T09:05:24;22.80;99.60
55173;DHT22;41061;52.822;6.860;2023-06-10T09:07:51;22.90;99.20
55173;DHT22;41061;52.822;6.860;2023-06-10T09:10:18;23.00;98.00
55173;DHT22;41061;52.822;6.860;2023-06-10T09:12:44;23.10;96.50
55173;DHT22;41061;52.822;6.860;2023-06-10T09:15:10;23.20;95.30
55173;DHT22;41061;52.822;6.860;2023-06-10T09:17:38;23.20;95.10
55173;DHT22;41061;52.822;6.860;2023-06-10T09:20:06;23.40;96.20
55173;DHT22;41061;52.822;6.860;2023-06-10T09:22:33;23.50;94.00
55173;DHT22;41061;52.822;6.860;2023-06-10T09:25:09;23.50;93.20
55173;DHT22;41061;52.822;6.860;2023-06-10T09:27:45;23.50;93.90
55173;DHT22;41061;52.822;6.860;2023-06-10T09:30:32;23.60;94.30
55173;DHT22;41061;52.822;6.860;2023-06-10T09:33:00;23.60;90.50
55173;DHT22;41061;52.822;6.860;2023-06-10T09:35:28;23.60;90.70
55173;DHT22;41061;52.822;6.860;2023-06-10T09:37:55;23.80;88.30
55173;DHT22;41061;52.822;6.860;2023-06-10T09:40:21;23.90;85.40
55173;DHT22;41061;52.822;6.860;2023-06-10T09:42:53;23.90;87.30
55173;DHT22;41061;52.822;6.860;2023-06-10T09:45:21;24.10;85.30
55173;DHT22;41061;52.822;6.860;2023-06-10T09:47:47;24.20;85.40
55173;DHT22;41061;52.822;6.860;2023-06-10T09:50:13;24.30;86.40
55173;DHT22;41061;52.822;6.860;2023-06-10T09:52:39;24.30;85.30
55173;DHT22;41061;52.822;6.860;2023-06-10T09:55:09;24.40;85.20
55173;DHT22;41061;52.822;6.860;2023-06-10T09:57:36;24.50;82.00
55173;DHT22;41061;52.822;6.860;2023-06-10T10:00:09;24.60;82.40
55173;DHT22;41061;52.822;6.860;2023-06-10T10:02:49;24.80;78.50
55173;DHT22;41061;52.822;6.860;2023-06-10T10:05:19;24.80;79.00
55173;DHT22;41061;52.822;6.860;2023-06-10T10:07:45;24.80;75.40
55173;DHT22;41061;52.822;6.860;2023-06-10T10:10:13;24.80;76.70
55173;DHT22;41061;52.822;6.860;2023-06-10T10:12:40;24.80;72.00
55173;DHT22;41061;52.822;6.860;2023-06-10T10:15:07;24.90;73.30
55173;DHT22;41061;52.822;6.860;2023-06-10T10:17:41;24.80;72.40
55173;DHT22;41061;52.822;6.860;2023-06-10T10:20:12;24.70;69.30
55173;DHT22;41061;52.822;6.860;2023-06-10T10:22:41;24.70;70.40
55173;DHT22;41061;52.822;6.860;2023-06-10T10:25:11;24.70;71.50
55173;DHT22;41061;52.822;6.860;2023-06-10T10:30:11;25.00;73.70
55173;DHT22;41061;52.822;6.860;2023-06-10T10:32:46;25.20;71.70
55173;DHT22;41061;52.822;6.860;2023-06-10T10:35:20;25.40;69.00
55173;DHT22;41061;52.822;6.860;2023-06-10T10:37:52;25.50;66.30
55173;DHT22;41061;52.822;6.860;2023-06-10T10:40:19;25.20;68.00
55173;DHT22;41061;52.822;6.860;2023-06-10T10:42:46;25.20;65.70
55173;DHT22;41061;52.822;6.860;2023-06-10T10:45:13;25.30;65.60
55173;DHT22;41061;52.822;6.860;2023-06-10T10:47:39;25.50;60.60
55173;DHT22;41061;52.822;6.860;2023-06-10T10:50:19;25.50;63.90
55173;DHT22;41061;52.822;6.860;2023-06-10T10:53:01;25.40;61.20
55173;DHT22;41061;52.822;6.860;2023-06-10T10:55:28;25.50;59.40
55173;DHT22;41061;52.822;6.860;2023-06-10T11:00:31;25.60;64.40
55173;DHT22;41061;52.822;6.860;2023-06-10T11:03:08;26.00;63.60
55173;DHT22;41061;52.822;6.860;2023-06-10T11:05:41;26.10;61.70
55173;DHT22;41061;52.822;6.860;2023-06-10T11:08:10;26.30;59.80
55173;DHT22;41061;52.822;6.860;2023-06-10T11:10:40;26.30;59.40
55173;DHT22;41061;52.822;6.860;2023-06-10T11:13:26;26.40;56.90
55173;DHT22;41061;52.822;6.860;2023-06-10T11:15:54;26.60;56.30
55173;DHT22;41061;52.822;6.860;2023-06-10T11:18:24;26.50;56.30
55173;DHT22;41061;52.822;6.860;2023-06-10T11:34:08;26.80;52.30
55173;DHT22;41061;52.822;6.860;2023-06-10T11:36:39;27.00;51.00
55173;DHT22;41061;52.822;6.860;2023-06-10T11:39:06;27.00;50.90
55173;DHT22;41061;52.822;6.860;2023-06-10T11:41:33;26.90;52.30
55173;DHT22;41061;52.822;6.860;2023-06-10T11:44:07;27.00;51.00
55173;DHT22;41061;52.822;6.860;2023-06-10T11:46:34;27.20;49.30
55173;DHT22;41061;52.822;6.860;2023-06-10T11:49:01;27.30;49.80
55173;DHT22;41061;52.822;6.860;2023-06-10T11:51:34;27.50;45.80
55173;DHT22;41061;52.822;6.860;2023-06-10T11:54:01;27.60;47.70
55173;DHT22;41061;52.822;6.860;2023-06-10T11:56:28;27.70;49.30
55173;DHT22;41061;52.822;6.860;2023-06-10T12:01:25;27.90;45.10
55173;DHT22;41061;52.822;6.860;2023-06-10T12:04:04;28.00;48.50
55173;DHT22;41061;52.822;6.860;2023-06-10T12:06:57;28.20;47.10
55173;DHT22;41061;52.822;6.860;2023-06-10T12:09:24;28.50;49.10
55173;DHT22;41061;52.822;6.860;2023-06-10T12:12:11;28.70;46.20
55173;DHT22;41061;52.822;6.860;2023-06-10T12:14:57;28.70;47.70
55173;DHT22;41061;52.822;6.860;2023-06-10T12:19:59;28.50;51.50
55173;DHT22;41061;52.822;6.860;2023-06-10T12:22:25;28.50;48.60
55173;DHT22;41061;52.822;6.860;2023-06-10T12:24:59;28.70;48.00
55173;DHT22;41061;52.822;6.860;2023-06-10T12:27:25;28.70;48.20
55173;DHT22;41061;52.822;6.860;2023-06-10T12:29:52;28.80;49.40
55173;DHT22;41061;52.822;6.860;2023-06-10T12:32:21;29.10;50.00
55173;DHT22;41061;52.822;6.860;2023-06-10T12:35:02;29.20;46.50
55173;DHT22;41061;52.822;6.860;2023-06-10T12:37:32;29.00;45.30
55173;DHT22;41061;52.822;6.860;2023-06-10T12:40:00;28.90;47.60
55173;DHT22;41061;52.822;6.860;2023-06-10T12:42:26;29.00;45.40
55173;DHT22;41061;52.822;6.860;2023-06-10T12:44:56;28.90;48.50
55173;DHT22;41061;52.822;6.860;2023-06-10T12:47:34;28.90;47.80
55173;DHT22;41061;52.822;6.860;2023-06-10T12:50:05;29.00;45.40
55173;DHT22;41061;52.822;6.860;2023-06-10T12:52:31;29.10;45.40
55173;DHT22;41061;52.822;6.860;2023-06-10T12:54:58;29.20;46.10
55173;DHT22;41061;52.822;6.860;2023-06-10T12:57:24;29.30;43.30
55173;DHT22;41061;52.822;6.860;2023-06-10T12:59:50;29.40;44.80
55173;DHT22;41061;52.822;6.860;2023-06-10T13:02:20;29.40;42.40
55173;DHT22;41061;52.822;6.860;2023-06-10T13:04:49;29.50;43.90
55173;DHT22;41061;52.822;6.860;2023-06-10T13:07:15;29.40;43.80
55173;DHT22;41061;52.822;6.860;2023-06-10T13:09:41;29.50;46.30
55173;DHT22;41061;52.822;6.860;2023-06-10T13:12:07;29.60;43.40
55173;DHT22;41061;52.822;6.860;2023-06-10T13:14:33;29.60;45.10
55173;DHT22;41061;52.822;6.860;2023-06-10T13:16:59;29.50;42.70
55173;DHT22;41061;52.822;6.860;2023-06-10T13:19:25;29.50;44.10
55173;DHT22;41061;52.822;6.860;2023-06-10T13:21:52;29.50;44.90
55173;DHT22;41061;52.822;6.860;2023-06-10T13:24:17;29.30;43.10
55173;DHT22;41061;52.822;6.860;2023-06-10T13:26:43;29.10;44.40
55173;DHT22;41061;52.822;6.860;2023-06-10T13:29:09;29.00;46.60
55173;DHT22;41061;52.822;6.860;2023-06-10T13:31:39;29.10;46.00
55173;DHT22;41061;52.822;6.860;2023-06-10T13:34:05;29.10;45.20
55173;DHT22;41061;52.822;6.860;2023-06-10T13:36:32;29.00;48.20
55173;DHT22;41061;52.822;6.860;2023-06-10T13:38:57;29.10;48.20
55173;DHT22;41061;52.822;6.860;2023-06-10T13:41:23;29.40;44.90
55173;DHT22;41061;52.822;6.860;2023-06-10T13:43:50;29.50;44.60
55173;DHT22;41061;52.822;6.860;2023-06-10T13:46:16;29.40;42.60
55173;DHT22;41061;52.822;6.860;2023-06-10T13:48:41;29.40;43.20
55173;DHT22;41061;52.822;6.860;2023-06-10T13:51:07;29.30;45.00
55173;DHT22;41061;52.822;6.860;2023-06-10T13:53:34;29.10;44.80
55173;DHT22;41061;52.822;6.860;2023-06-10T13:56:01;29.20;47.20
55173;DHT22;41061;52.822;6.860;2023-06-10T13:58:27;29.40;43.50
55173;DHT22;41061;52.822;6.860;2023-06-10T14:00:52;29.50;42.70
55173;DHT22;41061;52.822;6.860;2023-06-10T14:03:18;29.40;43.20
55173;DHT22;41061;52.822;6.860;2023-06-10T14:05:44;29.70;44.60
55173;DHT22;41061;52.822;6.860;2023-06-10T14:08:12;29.90;43.30
55173;DHT22;41061;52.822;6.860;2023-06-10T14:10:39;29.80;42.70
55173;DHT22;41061;52.822;6.860;2023-06-10T14:13:05;29.60;41.40
55173;DHT22;41061;52.822;6.860;2023-06-10T14:15:31;29.30;42.20
55173;DHT22;41061;52.822;6.860;2023-06-10T14:17:57;29.30;42.80
55173;DHT22;41061;52.822;6.860;2023-06-10T14:20:23;29.40;41.80
55173;DHT22;41061;52.822;6.860;2023-06-10T14:22:51;29.40;42.40
55173;DHT22;41061;52.822;6.860;2023-06-10T14:25:16;29.30;43.30
55173;DHT22;41061;52.822;6.860;2023-06-10T14:27:43;29.30;41.80
55173;DHT22;41061;52.822;6.860;2023-06-10T14:30:09;29.30;43.40
55173;DHT22;41061;52.822;6.860;2023-06-10T14:32:34;29.40;45.50
55173;DHT22;41061;52.822;6.860;2023-06-10T14:35:00;29.70;44.70
55173;DHT22;41061;52.822;6.860;2023-06-10T14:37:26;29.80;44.10
55173;DHT22;41061;52.822;6.860;2023-06-10T14:39:51;29.60;44.00
55173;DHT22;41061;52.822;6.860;2023-06-10T14:42:17;29.70;45.50
55173;DHT22;41061;52.822;6.860;2023-06-10T14:44:43;29.80;44.50
55173;DHT22;41061;52.822;6.860;2023-06-10T14:47:08;30.00;45.10
55173;DHT22;41061;52.822;6.860;2023-06-10T14:49:34;30.20;45.10
55173;DHT22;41061;52.822;6.860;2023-06-10T14:52:00;30.20;43.30
55173;DHT22;41061;52.822;6.860;2023-06-10T14:54:26;30.20;44.40
55173;DHT22;41061;52.822;6.860;2023-06-10T14:56:51;30.10;43.70
55173;DHT22;41061;52.822;6.860;2023-06-10T14:59:17;30.00;42.60
55173;DHT22;41061;52.822;6.860;2023-06-10T15:01:43;29.80;42.50
55173;DHT22;41061;52.822;6.860;2023-06-10T15:04:08;29.70;43.50
55173;DHT22;41061;52.822;6.860;2023-06-10T15:06:34;29.60;44.00
55173;DHT22;41061;52.822;6.860;2023-06-10T15:09:00;29.50;42.50
55173;DHT22;41061;52.822;6.860;2023-06-10T15:11:26;29.50;44.10
55173;DHT22;41061;52.822;6.860;2023-06-10T15:13:51;29.40;43.50
55173;DHT22;41061;52.822;6.860;2023-06-10T15:16:17;29.40;44.90
55173;DHT22;41061;52.822;6.860;2023-06-10T15:18:43;29.40;43.70
55173;DHT22;41061;52.822;6.860;2023-06-10T15:21:08;29.30;43.60
55173;DHT22;41061;52.822;6.860;2023-06-10T15:23:34;29.30;43.90
55173;DHT22;41061;52.822;6.860;2023-06-10T15:26:00;29.40;42.20
55173;DHT22;41061;52.822;6.860;2023-06-10T15:28:26;29.50;43.50
55173;DHT22;41061;52.822;6.860;2023-06-10T15:30:52;29.60;42.90
55173;DHT22;41061;52.822;6.860;2023-06-10T15:33:17;29.50;44.30
55173;DHT22;41061;52.822;6.860;2023-06-10T15:35:43;29.30;46.90
55173;DHT22;41061;52.822;6.860;2023-06-10T15:38:09;29.20;42.90
55173;DHT22;41061;52.822;6.860;2023-06-10T15:40:34;29.30;39.90
55173;DHT22;41061;52.822;6.860;2023-06-10T15:43:01;29.30;40.80
55173;DHT22;41061;52.822;6.860;2023-06-10T15:45:26;29.40;43.20
55173;DHT22;41061;52.822;6.860;2023-06-10T15:47:52;29.60;41.80
55173;DHT22;41061;52.822;6.860;2023-06-10T15:50:18;29.80;41.80
55173;DHT22;41061;52.822;6.860;2023-06-10T15:52:44;29.80;41.20
55173;DHT22;41061;52.822;6.860;2023-06-10T15:55:10;29.60;41.20
55173;DHT22;41061;52.822;6.860;2023-06-10T15:57:36;29.50;42.70